Time;durP1;ratioP1;P1;durP2;ratioP2;P2;SDS_P1;SDS_P2;PMS_P1;PMS_P2;Temp;Humidity;BMP_temperature;BMP_pressure;BME280_temperature;BME280_humidity;BME280_pressure;Samples;Min_cycle;Max_cycle;Signal;HPM_P1;HPM_P2
2022/09/03 00:00:36;;;;;;;3.47;2.90;;;;;;;26.34;39.63;99339.84;4139356;28;20793;-34
2022/09/03 00:02:44;;;;;;;2.65;2.45;;;;;;;25.85;40.71;99322.13;4141998;28;20721;-33
2022/09/03 00:04:57;;;;;;;4.30;2.30;;;;;;;24.94;41.39;99332.44;4142960;28;20633;-32
2022/09/03 00:07:11;;;;;;;2.65;2.10;;;;;;;25.05;42.58;99308.81;4142700;28;20237;-31
2022/09/03 00:09:21;;;;;;;3.47;2.40;;;;;;;25.27;42.64;99299.66;4143705;28;20235;-31
2022/09/03 00:11:37;;;;;;;3.25;2.00;;;;;;;25.57;42.23;99279.88;4148676;28;20233;-35
2022/09/03 00:13:56;;;;;;;4.10;2.45;;;;;;;25.17;42.40;99293.13;4144000;28;20241;-31
2022/09/03 00:16:01;;;;;;;5.05;2.45;;;;;;;25.51;42.32;99291.84;4145398;28;20271;-33
2022/09/03 00:18:06;;;;;;;3.75;2.20;;;;;;;25.33;42.87;99290.44;4146386;28;20607;-31
2022/09/03 00:20:21;;;;;;;3.95;2.35;;;;;;;25.24;43.05;99281.97;4145533;28;20234;-32
2022/09/03 00:22:36;;;;;;;2.50;2.28;;;;;;;25.18;43.46;99272.97;4140836;28;20233;-32
2022/09/03 00:24:40;;;;;;;2.65;2.35;;;;;;;25.35;43.25;99289.06;4143213;28;20719;-32
2022/09/03 00:26:46;;;;;;;5.22;2.35;;;;;;;24.68;44.52;99288.81;4145533;28;20252;-30
2022/09/03 00:29:02;;;;;;;5.13;2.20;;;;;;;24.62;44.89;99276.25;4142793;28;20234;-32
2022/09/03 00:31:11;;;;;;;2.35;2.15;;;;;;;24.55;44.76;99285.72;4146322;28;20229;-31
2022/09/03 00:33:20;;;;;;;4.35;2.63;;;;;;;25.76;42.28;99275.56;4145064;28;20252;-32
2022/09/03 00:35:34;;;;;;;5.70;2.50;;;;;;;26.18;40.54;99297.34;4144377;28;20238;-31
2022/09/03 00:37:36;;;;;;;2.47;2.30;;;;;;;26.29;40.62;99321.59;4143890;28;20241;-31
2022/09/03 00:39:39;;;;;;;5.97;2.60;;;;;;;26.15;40.15;99334.16;4142839;28;20263;-33
2022/09/03 00:41:52;;;;;;;2.83;2.42;;;;;;;26.40;39.71;99324.31;4148300;28;20234;-35
2022/09/03 00:44:23;;;;;;;4.85;2.78;;;;;;;26.09;39.83;99327.88;4140648;28;20730;-31
2022/09/03 00:46:31;;;;;;;3.25;2.50;;;;;;;25.78;40.52;99332.47;4143854;28;20240;-33
2022/09/03 00:48:50;;;;;;;2.53;2.33;;;;;;;24.87;42.42;99321.00;4145356;28;20232;-32
2022/09/03 00:50:59;;;;;;;5.45;2.50;;;;;;;24.78;42.71;99306.25;4142689;28;20770;-32
2022/09/03 00:53:16;;;;;;;2.45;2.25;;;;;;;25.16;42.13;99301.53;4142865;28;20287;-31
2022/09/03 00:55:59;;;;;;;3.70;2.10;;;;;;;25.49;40.83;99316.63;4144225;28;20710;-32
2022/09/03 00:58:19;;;;;;;2.90;2.40;;;;;;;25.95;39.60;99321.34;4128976;28;20229;-31
2022/09/03 01:00:21;;;;;;;2.83;2.20;;;;;;;25.07;41.65;99327.59;4147614;28;20709;-31
2022/09/03 01:02:32;;;;;;;2.83;2.33;;;;;;;25.56;40.11;99316.34;4143642;28;20233;-31
2022/09/03 01:04:56;;;;;;;5.05;2.63;;;;;;;25.98;38.65;99323.50;4147753;28;20236;-32
2022/09/03 01:07:45;;;;;;;2.47;2.28;;;;;;;25.89;38.95;99323.19;4138365;28;20314;-31
2022/09/03 01:09:54;;;;;;;2.63;2.13;;;;;;;25.33;39.34;99348.38;4145775;28;20221;-31
2022/09/03 01:12:14;;;;;;;4.28;2.47;;;;;;;25.02;40.08;99344.72;4145989;28;20245;-32
2022/09/03 01:14:41;;;;;;;2.95;2.40;;;;;;;25.00;40.80;99336.84;4139663;28;20681;-31
2022/09/03 01:16:57;;;;;;;2.97;2.50;;;;;;;25.51;39.76;99338.94;4141387;28;20237;-31
2022/09/03 01:19:10;;;;;;;2.77;2.27;;;;;;;24.72;41.30;99358.97;4142767;28;20295;-35
2022/09/03 01:21:33;;;;;;;3.53;2.22;;;;;;;24.42;42.66;99357.66;4142621;28;20257;-31
2022/09/03 01:24:12;;;;;;;2.57;2.30;;;;;;;24.19;43.36;99340.63;4148775;28;20291;-31
2022/09/03 01:26:34;;;;;;;3.25;2.45;;;;;;;24.78;43.23;99314.41;4140668;28;20283;-34
2022/09/03 01:28:46;;;;;;;5.43;2.70;;;;;;;24.96;43.05;99316.69;4143233;28;21410;-32
2022/09/03 01:31:00;;;;;;;2.63;2.43;;;;;;;25.16;42.38;99306.97;4144087;28;20229;-35
2022/09/03 01:33:32;;;;;;;4.00;2.40;;;;;;;25.36;41.85;99322.59;4142935;28;20319;-32
2022/09/03 01:35:56;;;;;;;5.85;2.30;;;;;;;24.86;42.33;99333.75;4135851;28;20674;-32
2022/09/03 01:38:23;;;;;;;3.23;2.93;;;;;;;25.88;41.16;99326.19;4140023;28;20229;-34
2022/09/03 01:40:41;;;;;;;7.40;2.53;;;;;;;25.21;41.98;99336.91;4140580;28;20231;-33
2022/09/03 01:42:59;;;;;;;2.80;2.05;;;;;;;25.31;41.54;99341.59;4142456;28;20241;-37
2022/09/03 01:45:05;;;;;;;3.17;2.40;;;;;;;24.43;43.00;99359.28;4144546;28;20287;-34
2022/09/03 01:47:32;;;;;;;5.97;2.67;;;;;;;24.68;43.28;99337.72;4147704;28;20240;-32
2022/09/03 01:50:02;;;;;;;4.00;2.30;;;;;;;23.92;44.75;99341.47;4143088;28;20278;-34
2022/09/03 01:52:38;;;;;;;2.40;2.10;;;;;;;24.27;44.53;99323.03;4122858;28;20259;-32
2022/09/03 01:55:18;;;;;;;3.33;2.60;;;;;;;23.62;45.84;99333.03;4145648;28;20659;-32
2022/09/03 01:57:55;;;;;;;3.07;2.30;;;;;;;24.01;44.75;99292.94;4143323;28;20881;-35
2022/09/03 02:00:05;;;;;;;2.70;2.45;;;;;;;24.26;44.34;99294.22;4146632;28;20233;-31
2022/09/03 02:02:20;;;;;;;3.00;2.22;;;;;;;24.59;43.74;99293.09;4145239;28;20646;-34
2022/09/03 02:04:24;;;;;;;3.43;2.60;;;;;;;24.30;44.58;99327.97;4142971;28;20260;-32
2022/09/03 02:06:30;;;;;;;2.90;2.25;;;;;;;23.97;44.93;99326.31;4144153;28;20721;-36
2022/09/03 02:08:32;;;;;;;3.33;2.30;;;;;;;24.14;44.31;99313.41;4146514;28;20280;-31
2022/09/03 02:10:54;;;;;;;5.63;2.80;;;;;;;25.15;43.10;99284.38;4150171;28;20294;-32
2022/09/03 02:13:06;;;;;;;3.50;2.47;;;;;;;24.43;44.28;99316.66;4142995;28;20237;-33
2022/09/03 02:15:15;;;;;;;2.50;2.23;;;;;;;24.33;44.66;99311.16;4135052;28;20252;-33
2022/09/03 02:17:19;;;;;;;2.50;2.30;;;;;;;24.88;43.88;99308.22;4142623;28;20279;-33
2022/09/03 02:19:20;;;;;;;3.05;2.70;;;;;;;24.75;44.29;99313.03;4151735;28;20298;-33
2022/09/03 02:21:24;;;;;;;4.20;2.67;;;;;;;24.91;43.82;99319.38;4143475;28;20229;-32
2022/09/03 02:23:26;;;;;;;4.20;2.53;;;;;;;25.15;44.19;99317.03;4147929;28;20652;-33
2022/09/03 02:25:38;;;;;;;3.78;2.88;;;;;;;24.07;45.77;99345.41;4138585;28;20312;-34
2022/09/03 02:27:41;;;;;;;4.67;2.50;;;;;;;24.62;45.44;99306.16;4142478;28;20237;-34
2022/09/03 02:29:43;;;;;;;2.90;2.50;;;;;;;25.01;44.49;99305.81;4142061;28;20299;-32
2022/09/03 02:31:44;;;;;;;3.70;2.53;;;;;;;24.45;46.36;99313.66;4141582;28;20342;-33
2022/09/03 02:33:47;;;;;;;4.28;3.13;;;;;;;23.43;47.71;99335.25;4147137;28;20255;-32
2022/09/03 02:35:50;;;;;;;4.88;2.88;;;;;;;23.49;48.40;99313.34;4139822;28;20295;-32
2022/09/03 02:37:52;;;;;;;4.80;2.78;;;;;;;23.79;48.04;99281.34;4142317;28;20701;-31
2022/09/03 02:39:53;;;;;;;3.27;2.70;;;;;;;22.75;50.15;99298.31;4141989;28;20233;-31
2022/09/03 02:41:57;;;;;;;2.83;2.50;;;;;;;22.50;50.75;99285.25;4146359;28;20233;-32
2022/09/03 02:44:22;;;;;;;4.47;2.60;;;;;;;23.71;49.01;99242.75;4139925;28;20228;-32
2022/09/03 02:46:33;;;;;;;3.23;2.40;;;;;;;24.01;48.23;99260.38;4145236;28;20232;-32
2022/09/03 02:48:35;;;;;;;5.73;2.80;;;;;;;23.31;49.16;99279.22;4132392;28;20311;-32
2022/09/03 02:50:40;;;;;;;5.20;3.17;;;;;;;23.33;49.72;99266.25;4137578;28;20290;-34
2022/09/03 02:52:42;;;;;;;3.70;2.70;;;;;;;24.27;47.59;99274.16;4136312;28;20248;-31
2022/09/03 02:54:44;;;;;;;2.90;2.60;;;;;;;24.46;47.40;99272.66;4140771;28;20291;-31
2022/09/03 02:56:48;;;;;;;4.40;3.20;;;;;;;24.83;46.79;99290.81;4139596;28;20310;-31
2022/09/03 02:58:50;;;;;;;5.30;2.63;;;;;;;24.57;47.46;99306.13;4139605;28;20233;-31
2022/09/03 03:00:52;;;;;;;6.93;3.37;;;;;;;24.71;47.00;99286.63;4145281;28;20240;-34
2022/09/03 03:02:55;;;;;;;3.90;3.17;;;;;;;24.92;46.83;99301.16;4141605;28;20232;-32
2022/09/03 03:04:56;;;;;;;3.33;2.83;;;;;;;23.50;49.25;99322.28;4149635;28;20237;-32
2022/09/03 03:06:58;;;;;;;3.13;2.83;;;;;;;24.31;48.04;99267.94;4137737;28;20288;-32
2022/09/03 03:09:02;;;;;;;5.18;3.20;;;;;;;24.35;47.83;99303.53;4147353;28;20682;-33
2022/09/03 03:11:05;;;;;;;7.68;3.85;;;;;;;24.16;48.56;99289.53;4141007;28;20625;-35
2022/09/03 03:13:07;;;;;;;4.13;3.20;;;;;;;24.60;47.84;99297.44;4142003;28;20288;-33
2022/09/03 03:15:09;;;;;;;3.50;3.20;;;;;;;24.20;48.11;99317.84;4145774;28;20229;-32
2022/09/03 03:17:10;;;;;;;4.30;2.97;;;;;;;24.15;48.12;99335.97;4142807;28;20237;-32
2022/09/03 03:19:12;;;;;;;4.32;2.97;;;;;;;24.58;47.35;99323.25;4152136;28;20237;-32
2022/09/03 03:21:16;;;;;;;3.58;2.95;;;;;;;24.56;47.49;99328.13;4142619;28;20236;-31
2022/09/03 03:23:18;;;;;;;3.60;3.22;;;;;;;24.73;47.13;99325.22;4146667;28;20920;-32
2022/09/03 03:25:20;;;;;;;3.65;3.15;;;;;;;24.52;47.50;99324.31;4139818;28;20237;-33
2022/09/03 03:27:21;;;;;;;3.77;3.13;;;;;;;24.65;47.28;99318.41;4143264;28;20236;-33
2022/09/03 03:29:24;;;;;;;5.35;3.78;;;;;;;24.66;47.31;99325.47;4143715;28;20233;-32
2022/09/03 03:31:26;;;;;;;6.85;3.40;;;;;;;24.64;47.39;99339.31;4137748;28;20279;-31
2022/09/03 03:33:28;;;;;;;4.00;3.63;;;;;;;24.60;47.77;99332.78;4142239;28;20241;-32
2022/09/03 03:35:30;;;;;;;4.82;3.80;;;;;;;24.81;47.39;99335.66;4142907;28;20266;-32
2022/09/03 03:37:32;;;;;;;3.67;3.33;;;;;;;24.79;47.57;99333.19;4143109;28;20233;-33
2022/09/03 03:39:34;;;;;;;4.22;3.38;;;;;;;24.73;47.45;99346.97;4138088;28;20237;-32
2022/09/03 03:41:37;;;;;;;3.85;3.33;;;;;;;24.16;48.96;99329.44;4139662;28;20276;-32
2022/09/03 03:43:38;;;;;;;4.85;3.30;;;;;;;24.69;47.82;99344.78;4139333;28;20232;-31
2022/09/03 03:45:40;;;;;;;4.50;3.30;;;;;;;24.31;48.24;99351.31;4144159;28;20291;-31
2022/09/03 03:47:42;;;;;;;3.50;3.20;;;;;;;23.83;49.54;99342.19;4145342;28;20290;-32
2022/09/03 03:49:43;;;;;;;3.47;3.10;;;;;;;24.48;48.05;99341.13;4144233;28;20233;-31
2022/09/03 03:51:45;;;;;;;5.37;3.60;;;;;;;23.33;50.83;99333.22;4150004;28;20229;-34
2022/09/03 03:53:47;;;;;;;5.43;3.45;;;;;;;23.33;50.69;99323.22;4143585;28;20237;-31
2022/09/03 03:56:00;;;;;;;3.90;3.50;;;;;;;23.31;50.22;99363.31;4146508;28;20575;-31
2022/09/03 03:58:02;;;;;;;3.85;3.47;;;;;;;24.66;47.83;99339.88;4142710;28;20221;-31
2022/09/03 04:00:04;;;;;;;5.05;3.88;;;;;;;23.94;49.54;99347.47;4145456;28;20228;-34
2022/09/03 04:02:06;;;;;;;4.57;3.28;;;;;;;24.31;48.82;99343.16;4140641;28;20229;-32
2022/09/03 04:04:08;;;;;;;4.35;3.45;;;;;;;24.67;48.45;99335.28;4152064;28;20240;-31
2022/09/03 04:06:13;;;;;;;4.50;3.58;;;;;;;22.14;52.93;99378.66;4145000;28;20654;-31
2022/09/03 04:08:15;;;;;;;5.15;4.10;;;;;;;23.62;50.26;99339.28;4148528;28;20302;-32
2022/09/03 04:10:16;;;;;;;3.97;3.50;;;;;;;23.95;49.67;99359.94;4143346;28;20283;-32
2022/09/03 04:12:18;;;;;;;4.25;3.63;;;;;;;23.50;50.80;99335.84;4142857;28;20241;-31
2022/09/03 04:14:20;;;;;;;3.60;3.30;;;;;;;24.37;48.80;99346.75;4150610;28;20240;-31
2022/09/03 04:16:25;;;;;;;6.88;4.20;;;;;;;23.29;51.32;99353.81;4145037;28;20238;-34
2022/09/03 04:18:26;;;;;;;5.43;3.60;;;;;;;23.33;50.88;99353.06;4147745;28;20232;-31
2022/09/03 04:20:28;;;;;;;4.47;3.97;;;;;;;23.32;51.10;99369.56;4141499;28;20232;-32
2022/09/03 04:22:30;;;;;;;3.73;3.43;;;;;;;22.95;51.77;99365.59;4145220;28;20303;-34
2022/09/03 04:24:31;;;;;;;5.40;3.97;;;;;;;24.13;49.62;99349.81;4140296;28;20268;-32
2022/09/03 04:26:33;;;;;;;5.03;3.80;;;;;;;24.76;48.21;99368.22;4136929;28;20867;-31
2022/09/03 04:28:35;;;;;;;4.68;3.70;;;;;;;24.58;48.58;99364.00;4148419;28;20241;-31
2022/09/03 04:30:37;;;;;;;4.68;4.03;;;;;;;23.97;49.41;99405.03;4142548;28;20607;-31
2022/09/03 04:32:55;;;;;;;5.32;4.25;;;;;;;23.86;49.71;99415.81;4146547;28;20269;-32
2022/09/03 04:34:56;;;;;;;4.45;3.67;;;;;;;24.87;47.85;99383.53;4143648;28;20861;-31
2022/09/03 04:36:58;;;;;;;6.43;4.03;;;;;;;24.82;47.98;99391.66;4145209;28;20232;-32
2022/09/03 04:39:01;;;;;;;4.05;3.65;;;;;;;24.59;48.75;99395.56;4142930;28;20586;-34
2022/09/03 04:41:04;;;;;;;6.47;3.70;;;;;;;24.33;48.76;99405.38;4150084;28;20233;-34
2022/09/03 04:43:05;;;;;;;5.65;3.90;;;;;;;24.51;48.61;99399.56;4139322;28;20644;-31
2022/09/03 04:45:08;;;;;;;4.38;3.80;;;;;;;24.55;48.61;99397.13;4150001;28;20241;-31
2022/09/03 04:47:10;;;;;;;5.13;3.70;;;;;;;24.13;49.19;99413.09;4142116;28;20233;-31
2022/09/03 04:49:11;;;;;;;5.83;3.70;;;;;;;24.34;49.33;99397.00;4145572;28;20240;-31
2022/09/03 04:51:16;;;;;;;4.53;4.00;;;;;;;24.11;49.83;99401.66;4145801;28;20777;-31
2022/09/03 04:53:18;;;;;;;5.45;4.07;;;;;;;24.49;49.20;99380.00;4139489;28;20240;-31
2022/09/03 04:55:19;;;;;;;7.70;4.30;;;;;;;23.89;51.01;99392.75;4144688;28;20237;-32
2022/09/03 04:57:21;;;;;;;6.47;4.35;;;;;;;23.70;51.79;99386.84;4139933;28;20236;-37
2022/09/03 04:59:23;;;;;;;6.15;4.20;;;;;;;23.68;52.15;99376.25;4150971;28;20236;-32
2022/09/03 05:01:27;;;;;;;6.20;4.30;;;;;;;23.82;52.26;99367.69;4139178;28;20230;-33
2022/09/03 05:03:29;;;;;;;10.65;4.25;;;;;;;24.26;50.50;99365.69;4143038;28;20237;-36
2022/09/03 05:05:32;;;;;;;5.43;4.50;;;;;;;24.16;51.53;99389.19;4142501;28;20237;-31
2022/09/03 05:07:37;;;;;;;8.87;4.63;;;;;;;24.65;49.89;99386.38;4143705;28;20308;-33
2022/09/03 05:09:39;;;;;;;10.38;5.00;;;;;;;24.63;50.01;99389.34;4144168;28;20234;-32
2022/09/03 05:11:40;;;;;;;7.33;4.57;;;;;;;23.95;52.02;99387.09;4140098;28;20760;-32
2022/09/03 05:13:42;;;;;;;8.73;5.30;;;;;;;24.82;49.72;99384.31;4146035;28;21501;-32
2022/09/03 05:15:44;;;;;;;7.05;5.63;;;;;;;24.68;49.25;99419.28;4146314;28;20824;-35
2022/09/03 05:17:46;;;;;;;7.83;5.00;;;;;;;24.52;49.61;99412.09;4147306;28;20234;-33
2022/09/03 05:19:49;;;;;;;6.57;5.03;;;;;;;24.73;49.33;99420.38;4139180;28;20291;-32
2022/09/03 05:21:51;;;;;;;5.80;5.20;;;;;;;24.15;50.64;99426.41;4144730;28;20304;-31
2022/09/03 05:23:53;;;;;;;6.33;5.33;;;;;;;24.66;49.39;99429.56;4143110;28;20288;-33
2022/09/03 05:25:57;;;;;;;6.87;5.20;;;;;;;24.52;49.58;99425.69;4142882;28;20291;-32
2022/09/03 05:28:00;;;;;;;8.40;5.17;;;;;;;24.44;50.14;99424.25;4144707;28;20271;-32
2022/09/03 05:30:02;;;;;;;7.73;5.77;;;;;;;23.86;50.72;99448.38;4143564;28;20232;-34
2022/09/03 05:32:04;;;;;;;6.90;5.33;;;;;;;24.05;50.58;99424.41;4145313;28;20628;-32
2022/09/03 05:34:06;;;;;;;7.10;5.37;;;;;;;23.76;51.23;99424.66;4138507;28;20238;-32
2022/09/03 05:36:12;;;;;;;9.40;5.17;;;;;;;23.54;51.84;99440.13;4140207;28;20232;-35
2022/09/03 05:38:15;;;;;;;5.80;5.07;;;;;;;24.09;50.53;99417.41;4145531;28;20236;-32
2022/09/03 05:40:17;;;;;;;7.03;5.43;;;;;;;24.18;50.55;99423.22;4146768;28;20236;-33
2022/09/03 05:42:19;;;;;;;7.73;6.03;;;;;;;24.09;50.84;99425.56;4133828;28;20265;-36
2022/09/03 05:44:22;;;;;;;9.17;5.03;;;;;;;23.64;51.93;99439.44;4144385;28;20241;-31
2022/09/03 05:46:32;;;;;;;6.60;5.70;;;;;;;24.28;50.44;99415.16;4144713;28;20698;-34
2022/09/03 05:48:35;;;;;;;8.20;5.70;;;;;;;23.77;52.36;99414.59;4142532;28;20241;-32
2022/09/03 05:50:37;;;;;;;7.07;5.03;;;;;;;23.36;53.34;99427.66;4143962;28;20291;-31
2022/09/03 05:52:39;;;;;;;5.90;5.30;;;;;;;23.53;52.91;99416.75;4137820;28;20241;-32
2022/09/03 05:54:41;;;;;;;5.63;5.03;;;;;;;23.34;53.99;99406.22;4141774;28;20237;-32
2022/09/03 05:56:43;;;;;;;7.43;5.90;;;;;;;24.03;52.47;99398.59;4144526;28;20245;-31
2022/09/03 05:58:47;;;;;;;7.53;5.63;;;;;;;24.31;52.09;99381.19;4143555;28;20318;-32
2022/09/03 06:00:49;;;;;;;7.27;5.33;;;;;;;24.63;51.01;99369.47;4141009;28;20232;-31
2022/09/03 06:02:51;;;;;;;8.37;5.83;;;;;;;24.67;50.71;99385.00;4143413;28;20994;-34
2022/09/03 06:04:54;;;;;;;8.53;5.70;;;;;;;23.97;52.68;99416.72;4143745;28;20291;-31
2022/09/03 06:06:56;;;;;;;7.00;5.40;;;;;;;24.05;52.49;99426.31;4137213;28;20291;-33
2022/09/03 06:09:01;;;;;;;5.87;4.90;;;;;;;22.77;55.79;99434.41;4144775;28;20347;-35
2022/09/03 06:11:03;;;;;;;7.87;5.40;;;;;;;23.72;53.75;99418.09;4140204;28;21020;-31
2022/09/03 06:13:04;;;;;;;7.10;5.70;;;;;;;23.84;53.73;99420.69;4146767;28;20643;-32
2022/09/03 06:15:08;;;;;;;7.17;5.30;;;;;;;23.72;53.72;99425.41;4144360;28;20236;-33
2022/09/03 06:17:11;;;;;;;5.70;5.10;;;;;;;24.33;52.17;99410.81;4143795;28;20237;-31
2022/09/03 06:19:13;;;;;;;7.33;5.30;;;;;;;24.43;52.02;99432.66;4133456;28;20229;-32
2022/09/03 06:21:15;;;;;;;7.83;5.17;;;;;;;24.07;53.05;99437.72;4141422;28;20229;-32
2022/09/03 06:23:17;;;;;;;8.17;5.23;;;;;;;24.29;52.36;99440.41;4141884;28;20737;-32
2022/09/03 06:25:18;;;;;;;5.57;4.70;;;;;;;23.93;53.36;99456.34;4138472;28;20233;-31
2022/09/03 06:27:21;;;;;;;9.37;6.00;;;;;;;24.09;53.14;99443.72;4142930;28;20882;-33
2022/09/03 06:29:23;;;;;;;6.97;5.73;;;;;;;23.89;52.96;99452.47;4142482;28;20221;-31
2022/09/03 06:31:25;;;;;;;9.90;5.20;;;;;;;24.31;52.22;99458.13;4145542;28;20229;-34
2022/09/03 06:33:32;;;;;;;8.03;5.97;;;;;;;24.82;51.37;99456.94;4139402;28;20229;-31
2022/09/03 06:35:33;;;;;;;7.73;6.03;;;;;;;24.25;52.81;99480.88;4142565;28;20245;-32
2022/09/03 06:37:43;;;;;;;8.60;6.17;;;;;;;23.92;53.54;99477.25;4138868;28;20237;-35
2022/09/03 06:39:45;;;;;;;6.40;5.33;;;;;;;24.38;52.88;99463.34;4142536;28;20237;-29
2022/09/03 06:41:50;;;;;;;10.17;6.00;;;;;;;24.13;53.42;99480.97;4150448;28;20284;-32
2022/09/03 06:44:03;;;;;;;9.27;6.43;;;;;;;24.33;53.06;99473.31;4139317;28;20762;-30
2022/09/03 06:46:07;;;;;;;8.63;6.00;;;;;;;24.92;52.20;99469.75;4141627;28;20826;-29
2022/09/03 06:48:09;;;;;;;7.18;5.57;;;;;;;25.14;51.10;99499.53;4141410;28;20976;-33
2022/09/03 06:50:11;;;;;;;8.90;6.27;;;;;;;25.11;51.26;99510.97;4145092;28;20229;-30
2022/09/03 06:52:12;;;;;;;9.90;6.03;;;;;;;24.02;53.48;99519.97;4137852;28;20276;-31
2022/09/03 06:54:15;;;;;;;6.27;5.33;;;;;;;24.75;52.41;99502.50;4143839;28;20283;-32
2022/09/03 06:56:24;;;;;;;7.43;5.37;;;;;;;24.29;53.32;99511.06;4141932;28;20225;-30
2022/09/03 06:58:49;;;;;;;7.17;6.47;;;;;;;24.58;51.86;99498.03;4131908;28;20920;-32
2022/09/03 07:00:52;;;;;;;9.57;6.60;;;;;;;24.62;52.15;99509.19;4135096;28;20280;-31
2022/09/03 07:03:01;;;;;;;6.70;5.77;;;;;;;24.31;52.22;99520.59;4142003;28;20252;-37
2022/09/03 07:05:03;;;;;;;6.20;5.60;;;;;;;24.61;51.68;99507.56;4145908;28;20240;-31
2022/09/03 07:07:12;;;;;;;7.37;5.50;;;;;;;24.33;52.03;99524.94;4139291;28;20616;-31
2022/09/03 07:09:16;;;;;;;6.10;5.50;;;;;;;24.22;52.39;99532.97;4145349;28;20283;-34
2022/09/03 07:11:22;;;;;;;6.67;6.00;;;;;;;24.36;52.07;99532.59;4141960;28;20236;-32
2022/09/03 07:13:24;;;;;;;8.77;6.50;;;;;;;23.67;53.36;99550.19;4145526;28;20718;-33
2022/09/03 07:15:25;;;;;;;9.80;7.80;;;;;;;23.45;54.17;99533.84;4137563;28;20225;-31
2022/09/03 07:17:27;;;;;;;9.80;7.63;;;;;;;23.48;54.33;99530.66;4145095;28;20714;-32
2022/09/03 07:19:29;;;;;;;9.50;7.70;;;;;;;23.54;54.33;99508.75;4136560;28;20280;-33
2022/09/03 07:21:32;;;;;;;9.53;8.50;;;;;;;23.41;54.49;99519.97;4147563;28;20248;-32
2022/09/03 07:23:36;;;;;;;10.33;9.23;;;;;;;22.61;56.54;99520.06;4142757;28;20233;-33
2022/09/03 07:25:37;;;;;;;11.57;8.93;;;;;;;23.56;54.61;99492.25;4143874;28;20240;-31
2022/09/03 07:27:39;;;;;;;9.70;8.70;;;;;;;23.67;54.48;99485.06;4151738;28;20671;-30
2022/09/03 07:29:41;;;;;;;11.30;8.90;;;;;;;23.31;54.99;99496.22;4146081;28;20308;-32
2022/09/03 07:31:43;;;;;;;10.33;8.77;;;;;;;23.46;54.86;99506.47;4146934;28;20240;-31
2022/09/03 07:33:46;;;;;;;9.37;8.37;;;;;;;23.43;54.47;99504.25;4140202;28;20252;-30
2022/09/03 07:35:48;;;;;;;8.87;7.97;;;;;;;23.94;53.68;99496.81;4144452;28;20231;-31
2022/09/03 07:37:50;;;;;;;9.17;7.90;;;;;;;23.88;54.28;99489.66;4142418;28;20229;-31
2022/09/03 07:39:52;;;;;;;10.10;7.27;;;;;;;24.02;53.92;99486.56;4145847;28;20279;-32
2022/09/03 07:41:58;;;;;;;8.50;7.60;;;;;;;24.15;53.86;99499.75;4149432;28;20236;-31
2022/09/03 07:44:04;;;;;;;9.10;7.07;;;;;;;23.84;54.13;99502.13;4144322;28;20714;-31
2022/09/03 07:46:07;;;;;;;6.73;5.93;;;;;;;22.30;57.67;99509.75;4145637;28;20581;-33
2022/09/03 07:48:09;;;;;;;7.30;5.87;;;;;;;20.15;63.32;99498.28;4141879;28;20234;-31
2022/09/03 07:50:10;;;;;;;6.27;5.67;;;;;;;20.61;62.72;99451.69;4150361;28;20221;-30
2022/09/03 07:52:12;;;;;;;6.57;5.43;;;;;;;20.81;62.80;99418.94;4144188;28;20226;-32
2022/09/03 07:54:20;;;;;;;6.70;5.97;;;;;;;23.22;56.92;99402.81;4144505;28;20319;-34
2022/09/03 07:56:22;;;;;;;7.43;6.63;;;;;;;24.05;54.44;99437.16;4147238;28;20659;-34
2022/09/03 07:58:24;;;;;;;7.67;6.17;;;;;;;24.14;54.01;99462.78;4147745;28;20315;-33
2022/09/03 08:00:26;;;;;;;6.43;5.73;;;;;;;23.02;56.29;99504.50;4148965;28;20287;-33
2022/09/03 08:02:30;;;;;;;7.43;5.63;;;;;;;23.49;55.94;99475.31;4146008;28;20236;-29
2022/09/03 08:04:32;;;;;;;6.67;5.50;;;;;;;24.06;54.65;99476.84;4150361;28;20588;-33
2022/09/03 08:06:34;;;;;;;7.37;5.37;;;;;;;24.40;53.55;99479.38;4141328;28;20889;-32
2022/09/03 08:08:37;;;;;;;6.70;5.53;;;;;;;24.48;53.79;99487.88;4150676;28;20291;-31
2022/09/03 08:10:39;;;;;;;7.30;5.10;;;;;;;24.38;53.73;99503.25;4139370;28;20779;-32
2022/09/03 08:12:41;;;;;;;7.27;5.80;;;;;;;24.36;54.05;99516.28;4144931;28;20245;-34
2022/09/03 08:14:42;;;;;;;6.87;5.90;;;;;;;24.35;54.51;99509.22;4135521;28;20249;-31
2022/09/03 08:16:48;;;;;;;8.47;5.87;;;;;;;24.78;53.20;99493.84;4138470;28;20773;-31
2022/09/03 08:18:50;;;;;;;6.47;5.13;;;;;;;21.87;60.82;99533.53;4132234;28;20226;-30
2022/09/03 08:20:52;;;;;;;6.03;4.40;;;;;;;23.22;57.83;99470.63;4143558;28;20237;-31
2022/09/03 08:23:01;;;;;;;6.37;4.80;;;;;;;24.68;54.58;99479.09;4143434;28;20241;-31
2022/09/03 08:25:03;;;;;;;7.20;4.70;;;;;;;24.79;54.21;99499.03;4135759;28;20244;-31
2022/09/03 08:27:05;;;;;;;5.97;4.50;;;;;;;22.81;58.19;99544.00;4139182;28;20229;-31
2022/09/03 08:29:07;;;;;;;8.67;4.70;;;;;;;21.54;63.10;99526.84;4136075;28;20264;-31
2022/09/03 08:31:10;;;;;;;6.30;4.90;;;;;;;22.48;59.97;99514.16;4140513;28;20290;-30
2022/09/03 08:33:12;;;;;;;5.83;5.00;;;;;;;22.32;61.37;99508.44;4136910;28;20337;-30
2022/09/03 08:35:14;;;;;;;6.30;5.00;;;;;;;22.25;61.00;99510.44;4160084;22;20668;-32
2022/09/03 08:37:16;;;;;;;5.80;4.80;;;;;;;21.69;62.11;99510.97;4154985;28;20287;-31
2022/09/03 08:39:17;;;;;;;5.33;4.83;;;;;;;22.71;60.05;99480.63;4155263;28;20641;-32
2022/09/03 08:41:29;;;;;;;7.13;5.33;;;;;;;21.48;62.54;99500.75;4154726;28;20252;-31
2022/09/03 08:43:35;;;;;;;6.73;5.23;;;;;;;21.96;61.78;99471.72;4156179;28;20290;-32
2022/09/03 08:45:38;;;;;;;5.70;4.87;;;;;;;22.00;61.49;99495.38;4157570;28;20306;-31
2022/09/03 08:48:04;;;;;;;5.37;4.77;;;;;;;22.57;60.07;99497.22;4158347;28;20295;-31
2022/09/03 08:50:27;;;;;;;5.00;4.50;;;;;;;22.92;59.02;99511.63;4158780;28;20274;-32
2022/09/03 08:52:36;;;;;;;5.27;4.77;;;;;;;22.34;61.10;99498.19;4159549;28;20224;-32
2022/09/03 08:54:38;;;;;;;5.60;4.83;;;;;;;22.22;60.85;99538.00;4153842;28;20228;-32
2022/09/03 08:56:42;;;;;;;6.40;5.03;;;;;;;22.18;61.50;99521.41;4158744;28;20244;-32
2022/09/03 08:58:43;;;;;;;5.50;4.53;;;;;;;22.43;61.08;99504.03;4158875;28;20263;-32
2022/09/03 09:01:04;;;;;;;5.97;4.43;;;;;;;21.10;64.43;99537.19;4158146;28;20244;-32
2022/09/03 09:03:37;;;;;;;6.73;4.60;;;;;;;20.83;65.02;99528.66;4156380;28;20318;-32
2022/09/03 09:05:59;;;;;;;7.23;4.60;;;;;;;20.87;64.65;99551.47;4157188;28;20236;-32
2022/09/03 09:08:17;;;;;;;7.77;4.93;;;;;;;21.12;65.53;99489.97;4157345;28;20236;-32
2022/09/03 09:10:28;;;;;;;7.23;5.73;;;;;;;20.79;66.30;99514.81;4160537;28;20298;-32
2022/09/03 09:13:25;;;;;;;6.33;5.20;;;;;;;21.63;64.75;99495.69;4160654;28;20282;-32
2022/09/03 09:16:07;;;;;;;7.33;5.40;;;;;;;22.01;63.09;99494.28;4105541;28;20285;-32
2022/09/03 09:18:08;;;;;;;5.80;4.97;;;;;;;24.33;57.18;99533.09;4152213;28;20232;-32
2022/09/03 09:20:33;;;;;;;7.73;4.90;;;;;;;23.50;59.38;99545.63;4158906;28;20228;-32
2022/09/03 09:22:43;;;;;;;6.00;4.90;;;;;;;23.66;58.60;99543.97;4158796;28;20224;-32
2022/09/03 09:24:51;;;;;;;6.20;4.77;;;;;;;24.76;55.85;99543.03;4156723;28;20239;-32
2022/09/03 09:26:59;;;;;;;6.10;4.87;;;;;;;25.55;53.25;99576.03;4157553;28;20313;-32
2022/09/03 09:29:11;;;;;;;5.70;5.10;;;;;;;25.41;54.87;99594.75;4157940;28;20232;-32
2022/09/03 09:31:17;;;;;;;5.53;4.97;;;;;;;25.76;52.81;99609.66;4156755;28;20716;-32
2022/09/03 09:33:19;;;;;;;5.70;5.10;;;;;;;25.02;55.07;99611.25;4156088;28;20232;-32
2022/09/03 09:35:22;;;;;;;6.53;4.63;;;;;;;25.23;53.89;99612.25;4155338;28;21056;-32
2022/09/03 09:37:24;;;;;;;5.33;4.83;;;;;;;25.16;55.15;99579.03;4158771;28;20228;-32
2022/09/03 09:39:26;;;;;;;5.30;4.57;;;;;;;25.36;54.17;99584.63;4156065;28;20279;-32
2022/09/03 09:41:32;;;;;;;4.55;4.13;;;;;;;24.00;56.63;99592.72;4156581;28;20232;-32
2022/09/03 09:43:34;;;;;;;4.07;3.67;;;;;;;24.94;54.75;99582.66;4156803;28;20303;-32
2022/09/03 09:45:41;;;;;;;5.18;3.70;;;;;;;24.18;56.74;99596.25;4154907;28;20233;-32
2022/09/03 09:47:43;;;;;;;5.78;3.70;;;;;;;23.82;56.80;99591.13;4155342;28;20229;-31
2022/09/03 09:49:44;;;;;;;6.38;3.97;;;;;;;23.35;58.14;99580.66;4157600;28;20248;-32
2022/09/03 09:51:46;;;;;;;4.22;3.83;;;;;;;23.56;57.74;99581.81;4155764;28;20286;-32
2022/09/03 09:54:19;;;;;;;6.97;3.80;;;;;;;24.79;55.81;99542.53;4157246;28;20225;-32
2022/09/03 09:56:24;;;;;;;5.57;4.43;;;;;;;24.19;56.78;99574.22;4155166;28;20229;-32
2022/09/03 09:58:29;;;;;;;4.97;4.25;;;;;;;24.24;57.47;99552.56;4157194;28;20231;-32